Time;durP1;ratioP1;P1;durP2;ratioP2;P2;SDS_P1;SDS_P2;PMS_P1;PMS_P2;Temp;Humidity;BMP_temperature;BMP_pressure;BME280_temperature;BME280_humidity;BME280_pressure;Samples;Min_cycle;Max_cycle;Signal;HPM_P1;HPM_P2
2023/10/18 00:00:57;;;;;;;15.02;6.25;;;;;;;;;;5134743;27;20027;-73
2023/10/18 00:03:24;;;;;;;9.10;4.68;;;;;;;;;;5120411;28;20035;-73
2023/10/18 00:05:50;;;;;;;11.52;5.05;;;;;;;;;;5121461;28;20050;-73
2023/10/18 00:08:17;;;;;;;13.25;5.65;;;;;;;;;;5121418;28;20024;-73
2023/10/18 00:10:44;;;;;;;13.27;5.40;;;;;;;;;;5121551;28;20015;-73
2023/10/18 00:13:11;;;;;;;11.05;5.32;;;;;;;;;;5121351;28;20213;-72
2023/10/18 00:15:38;;;;;;;10.45;5.22;;;;;;;;;;5121337;28;20081;-73
2023/10/18 00:18:04;;;;;;;13.30;5.30;;;;;;;;;;5121552;28;20027;-73
2023/10/18 00:20:31;;;;;;;10.30;6.28;;;;;;;;;;5123547;27;20304;-72
2023/10/18 00:22:57;;;;;;;8.88;5.38;;;;;;;;;;5121293;28;20015;-70
2023/10/18 00:25:23;;;;;;;9.80;4.63;;;;;;;;;;5121420;28;20030;-70
2023/10/18 00:27:49;;;;;;;6.18;4.18;;;;;;;;;;5120999;28;20027;-73
2023/10/18 00:30:19;;;;;;;10.15;5.05;;;5.40;80.50;;;;;;5121444;28;20336;-69
2023/10/18 00:32:46;;;;;;;8.05;4.45;;;;;;;;;;5121573;28;20036;-70
2023/10/18 00:35:16;;;;;;;14.75;5.47;;;;;;;;;;5121132;28;20028;-70
2023/10/18 00:37:43;;;;;;;9.02;5.18;;;;;;;;;;5129234;27;20030;-69
2023/10/18 00:40:20;;;;;;;6.93;4.72;;;;;;;;;;5141421;27;20069;-70
2023/10/18 00:42:47;;;;;;;12.15;5.85;;;;;;;;;;5141438;27;20093;-71
2023/10/18 00:45:13;;;;;;;11.75;4.82;;;;;;;;;;5141379;27;20019;-71
2023/10/18 00:47:39;;;;;;;8.88;4.88;;;;;;;;;;5141272;27;20043;-70
2023/10/18 00:50:06;;;;;;;9.70;5.32;;;;;;;;;;5141767;27;20027;-71
2023/10/18 00:52:32;;;;;;;11.82;4.35;;;;;;;;;;5141441;27;20011;-75
2023/10/18 00:54:58;;;;;;;8.77;4.70;;;;;;;;;;5141293;27;20027;-74
2023/10/18 00:57:25;;;;;;;8.77;5.18;;;;;;;;;;5141241;27;20123;-74
2023/10/18 00:59:53;;;;;;;8.15;4.88;;;;;;;;;;5141222;27;20022;-77
2023/10/18 01:02:25;;;;;;;8.35;5.20;;;;;;;;;;5141099;27;20043;-75
2023/10/18 01:04:52;;;;;;;8.80;4.85;;;;;;;;;;5141117;27;20118;-76
2023/10/18 01:07:20;;;;;;;12.20;5.35;;;4.50;85.00;;;;;;5139654;28;20023;-76
2023/10/18 01:09:50;;;;;;;8.73;4.80;;;;;;;;;;5139529;27;20030;-76
2023/10/18 01:12:17;;;;;;;10.55;5.45;;;;;;;;;;5141312;28;20027;-76
2023/10/18 01:14:48;;;;;;;8.65;5.07;;;;;;;;;;5141093;28;20026;-76
2023/10/18 01:17:16;;;;;;;11.70;5.78;;;;;;;;;;5141089;28;20203;-75
2023/10/18 01:19:43;;;;;;;9.00;4.32;;;;;;;;;;5140960;28;20023;-75
2023/10/18 01:22:09;;;;;;;11.05;5.32;;;;;;;;;;5140973;28;20011;-74
2023/10/18 01:24:35;;;;;;;12.85;5.82;;;;;;;;;;5139801;28;20069;-75
2023/10/18 01:27:05;;;;;;;11.85;5.57;;;;;;;;;;5141296;28;20023;-71
2023/10/18 01:29:32;;;;;;;10.18;5.45;;;;;;;;;;5140764;28;20039;-71
2023/10/18 01:31:58;;;;;;;12.02;5.60;;;;;;;;;;5141039;28;20027;-70
2023/10/18 01:34:25;;;;;;;11.88;5.50;;;;;;;;;;5140759;27;20015;-71
2023/10/18 01:36:56;;;;;;;13.35;5.07;;;;;;;;;;5140749;28;20384;-71
2023/10/18 01:39:24;;;;;;;9.23;5.03;;;;;;;;;;5140699;27;20094;-71
2023/10/18 01:41:54;;;;;;;9.90;5.65;;;;;;;;;;5140955;28;20019;-71
2023/10/18 01:44:35;;;;;;;7.80;5.63;;;;;;;;;;5140760;28;20020;-70
2023/10/18 01:47:12;;;;;;;9.82;5.55;;;;;;;;;;5140912;28;20031;-70
2023/10/18 01:49:44;;;;;;;8.23;5.38;;;;;;;;;;5140562;28;20046;-71
2023/10/18 01:52:12;;;;;;;12.57;6.63;;;;;;;;;;5139336;28;20078;-71
2023/10/18 01:54:38;;;;;;;9.60;5.35;;;;;;;;;;5140582;28;20522;-71
2023/10/18 01:57:06;;;;;;;13.02;6.32;;;;;;;;;;5140632;28;20054;-71
2023/10/18 01:59:34;;;;;;;10.38;6.15;;;;;;;;;;5140780;28;20326;-70
2023/10/18 02:02:06;;;;;;;13.30;5.33;;;;;;;;;;5140694;28;20030;-71
2023/10/18 02:04:37;;;;;;;11.57;5.40;;;;;;;;;;5140698;28;20023;-69
2023/10/18 02:07:07;;;;;;;11.68;5.90;;;;;;;;;;5140994;28;20026;-69
2023/10/18 02:09:36;;;;;;;14.73;5.45;;;;;;;;;;5138661;28;20055;-69
2023/10/18 02:12:08;;;;;;;12.80;5.05;;;4.90;83.40;;;;;;5124386;28;20204;-68
2023/10/18 02:14:34;;;;;;;13.35;5.60;;;;;;;;;;5120086;28;20042;-69
2023/10/18 02:17:00;;;;;;;8.95;5.82;;;;;;;;;;5120047;28;20080;-69
2023/10/18 02:19:27;;;;;;;12.90;5.45;;;;;;;;;;5119860;28;20027;-69
2023/10/18 02:21:56;;;;;;;13.80;5.30;;;5.00;85.50;;;;;;5121063;28;20029;-69
2023/10/18 02:24:23;;;;;;;7.25;4.93;;;;;;;;;;5123425;28;20324;-70
2023/10/18 02:26:56;;;;;;;12.02;5.38;;;;;;;;;;5123758;28;20084;-70
2023/10/18 02:29:22;;;;;;;9.93;5.18;;;;;;;;;;5123625;28;20044;-69
2023/10/18 02:31:50;;;;;;;12.68;5.63;;;;;;;;;;5123481;28;20026;-69
2023/10/18 02:34:16;;;;;;;8.93;4.75;;;;;;;;;;5123860;28;20031;-73
2023/10/18 02:36:49;;;;;;;11.48;5.30;;;;;;;;;;5122312;28;20023;-74
2023/10/18 02:39:27;;;;;;;9.20;5.22;;;;;;;;;;5123542;28;20024;-74
2023/10/18 02:41:55;;;;;;;9.95;6.20;;;;;;;;;;5123576;28;20032;-73
2023/10/18 02:44:22;;;;;;;11.17;5.87;;;;;;;;;;5123502;28;20007;-73
2023/10/18 02:46:49;;;;;;;13.15;7.63;;;;;;;;;;5123415;28;20564;-72
2023/10/18 02:49:17;;;;;;;13.32;7.13;;;;;;;;;;5123211;28;20338;-73
2023/10/18 02:51:44;;;;;;;12.00;6.15;;;;;;;;;;5142817;27;20327;-74
2023/10/18 02:54:16;;;;;;;13.65;6.15;;;;;;;;;;5143940;27;20019;-74
2023/10/18 02:56:55;;;;;;;11.95;6.57;;;4.40;85.60;;;;;;5129922;27;20122;-74
2023/10/18 02:59:24;;;;;;;12.35;6.82;;;4.40;88.50;;;;;;5123244;28;20015;-75
2023/10/18 03:01:54;;;;;;;17.92;8.75;;;;;;;;;;5123143;28;20068;-73
2023/10/18 03:04:22;;;;;;;15.30;7.68;;;3.90;90.00;;;;;;5122985;28;20235;-72
2023/10/18 03:06:50;;;;;;;11.60;6.18;;;;;;;;;;5123298;28;20023;-72
2023/10/18 03:12:02;;;;;;;19.98;7.75;;;3.80;90.50;;;;;;5122902;28;20181;-72
2023/10/18 03:14:41;;;;;;;12.15;6.10;;;;;;;;;;5123057;28;20239;-72
2023/10/18 03:17:23;;;;;;;11.95;6.93;;;;;;;;;;5122766;28;20007;-71
2023/10/18 03:19:50;;;;;;;10.88;5.78;;;;;;;;;;5122668;28;20418;-71
2023/10/18 03:22:19;;;;;;;10.57;6.63;;;;;;;;;;5129519;27;20022;-71
2023/10/18 03:24:55;;;;;;;12.75;6.15;;;4.00;88.70;;;;;;5142939;27;20023;-72
2023/10/18 03:27:21;;;;;;;13.07;6.72;;;;;;;;;;5122316;27;20181;-74
2023/10/18 03:29:47;;;;;;;11.77;6.00;;;;;;;;;;5140630;27;20019;-73
2023/10/18 03:32:19;;;;;;;14.20;6.55;;;;;;;;;;5142901;27;20343;-73
2023/10/18 03:34:46;;;;;;;10.18;5.43;;;4.20;89.30;;;;;;5132142;27;20031;-70
2023/10/18 03:37:21;;;;;;;9.52;5.65;;;;;;;;;;5122160;28;20335;-71
2023/10/18 03:39:52;;;;;;;12.55;6.32;;;;;;;;;;5122017;28;20016;-73
2023/10/18 03:42:33;;;;;;;11.85;6.85;;;;;;;;;;5122131;28;20066;-74
2023/10/18 03:45:21;;;;;;;12.73;6.43;;;;;;;;;;5121823;28;20055;-71
2023/10/18 03:47:57;;;;;;;12.73;6.88;;;;;;;;;;5121854;28;20346;-70
2023/10/18 03:50:37;;;;;;;10.57;6.30;;;;;;;;;;5121824;28;20022;-71
2023/10/18 03:53:06;;;;;;;19.85;6.50;;;;;;;;;;5121718;28;20015;-71
2023/10/18 03:55:38;;;;;;;;;;;3.60;91.40;;;;;;5129278;27;20034;-71
2023/10/18 03:58:05;;;;;;;10.50;6.03;;;;;;;;;;5142150;27;20020;-71
2023/10/18 04:00:46;;;;;;;15.13;6.63;;;;;;;;;;5140864;27;20019;-71
2023/10/18 04:03:15;;;;;;;11.32;6.60;;;;;;;;;;5142037;27;20112;-71
2023/10/18 04:05:45;;;;;;;10.85;5.90;;;;;;;;;;5142142;27;20027;-69
2023/10/18 04:08:17;;;;;;;8.55;5.20;;;3.60;91.70;;;;;;5142105;27;20110;-69
2023/10/18 04:10:44;;;;;;;11.93;6.05;;;;;;;;;;5142010;27;20264;-68
2023/10/18 04:13:12;;;;;;;10.95;6.32;;;3.50;91.30;;;;;;5142053;27;20027;-69
2023/10/18 04:15:39;;;;;;;11.57;6.40;;;3.90;91.40;;;;;;5142125;27;20055;-69
2023/10/18 04:20:35;;;;;;;9.43;5.78;;;;;;;;;;5141990;27;20068;-69
2023/10/18 04:23:14;;;;;;;13.70;5.75;;;;;;;;;;5142075;27;20030;-70
2023/10/18 04:25:40;;;;;;;12.98;4.97;;;;;;;;;;5141884;27;20226;-70
2023/10/18 04:28:06;;;;;;;12.77;6.53;;;;;;;;;;5141739;27;20038;-70
2023/10/18 04:30:32;;;;;;;10.27;6.63;;;;;;;;;;5141776;27;20051;-70
2023/10/18 04:35:52;;;;;;;14.27;7.07;;;;;;;;;;5135819;27;20034;-70
2023/10/18 04:38:22;;;;;;;13.55;7.03;;;;;;;;;;5141511;27;20090;-70
2023/10/18 04:43:27;;;;;;;17.00;7.95;;;;;;;;;;5141814;27;20043;-69
2023/10/18 04:45:58;;;;;;;14.48;7.45;;;;;;;;;;5140860;27;20058;-71
2023/10/18 04:48:59;;;;;;;15.50;8.13;;;;;;;;;;5141152;27;20039;-71
2023/10/18 04:51:26;;;;;;;16.85;7.75;;;;;;;;;;5140756;27;20031;-71
2023/10/18 04:53:52;;;;;;;17.92;8.63;;;;;;;;;;5140915;27;20026;-74
2023/10/18 04:56:19;;;;;;;15.90;8.32;;;;;;;;;;5140789;27;20027;-75
2023/10/18 04:58:45;;;;;;;14.35;7.93;;;;;;;;;;5141156;27;20051;-74
2023/10/18 05:01:13;;;;;;;18.55;9.50;;;;;;;;;;5139777;27;20071;-73
2023/10/18 05:03:44;;;;;;;15.45;7.90;;;;;;;;;;5139802;27;20019;-75
2023/10/18 05:06:13;;;;;;;18.52;7.88;;;;;;;;;;5141134;27;20192;-75
2023/10/18 05:08:42;;;;;;;14.60;9.13;;;;;;;;;;5141088;27;20222;-75
2023/10/18 05:11:23;;;;;;;14.30;7.82;;;;;;;;;;5139790;28;20027;-73
2023/10/18 05:13:49;;;;;;;14.32;7.53;;;;;;;;;;5139874;28;20020;-71
2023/10/18 05:16:16;;;;;;;11.30;7.18;;;;;;;;;;5141040;27;20082;-73
2023/10/18 05:18:46;;;;;;;14.55;7.38;;;;;;;;;;5139210;27;20540;-71
2023/10/18 05:21:20;;;;;;;12.70;6.97;;;;;;;;;;5141039;27;20023;-70
2023/10/18 05:23:46;;;;;;;13.73;6.53;;;;;;;;;;5141297;27;20031;-70
2023/10/18 05:26:18;;;;;;;12.60;7.05;;;;;;;;;;5141338;27;20042;-70
2023/10/18 05:29:03;;;;;;;15.63;7.18;;;;;;;;;;5140965;27;20031;-73
2023/10/18 05:31:49;;;;;;;12.93;7.40;;;;;;;;;;5139864;28;20303;-72
2023/10/18 05:41:51;;;;;;;9.98;6.38;;;;;;;;;;5140917;27;20019;-74
2023/10/18 05:44:20;;;;;;;10.52;6.65;;;;;;;;;;5139628;28;20023;-74
2023/10/18 05:46:46;;;;;;;14.82;6.53;;;;;;;;;;5141150;27;20008;-73
2023/10/18 05:49:16;;;;;;;14.75;7.25;;;;;;;;;;5140933;27;20066;-75
2023/10/18 05:51:53;;;;;;;;;;;6.50;82.90;;;;;;5140512;27;20179;-75
2023/10/18 05:54:39;;;;;;;12.18;6.10;;;;;;;;;;5154791;27;19918;-73
2023/10/18 05:57:08;;;;;;;18.42;7.60;;;;;;;;;;5160586;27;20047;-73
2023/10/18 05:59:34;;;;;;;19.35;7.30;;;;;;;;;;5140827;27;20249;-71
2023/10/18 06:02:00;;;;;;;19.75;8.82;;;5.80;84.30;;;;;;5163409;27;20058;-73
2023/10/18 06:04:33;;;;;;;17.27;8.95;;;;;;;;;;5145717;27;20027;-73
2023/10/18 06:07:04;;;;;;;14.60;8.52;;;;;;;;;;5153918;27;20057;-73
2023/10/18 06:09:38;;;;;;;19.10;8.50;;;;;;;;;;5145583;27;20062;-72
2023/10/18 06:12:06;;;;;;;17.58;8.93;;;;;;;;;;5163147;27;20030;-74
2023/10/18 06:14:40;;;;;;;21.65;10.25;;;;;;;;;;5162800;27;20080;-72
2023/10/18 06:17:12;;;;;;;20.80;10.55;;;;;;;;;;5162043;27;20022;-73
2023/10/18 06:19:45;;;;;;;18.15;9.93;;;5.10;88.10;;;;;;5146804;27;20043;-73
2023/10/18 06:22:29;;;;;;;18.88;8.23;;;;;;;;;;5162559;27;20086;-74
2023/10/18 06:25:00;;;;;;;11.88;6.00;;;;;;;;;;5159025;27;20027;-74
2023/10/18 06:27:27;;;;;;;18.70;9.57;;;;;;;;;;5144180;27;20079;-74
2023/10/18 06:29:53;;;;;;;16.48;8.93;;;;;;;;;;5144212;27;20026;-73
2023/10/18 06:32:24;;;;;;;15.23;7.47;;;;;;;;;;5144122;27;20080;-74
2023/10/18 06:34:56;;;;;;;8.75;5.75;;;;;;;;;;5144088;27;20015;-73
2023/10/18 06:37:22;;;;;;;8.70;5.63;;;;;;;;;;5141935;27;20310;-74
2023/10/18 06:39:53;;;;;;;11.07;6.25;;;;;;;;;;5142328;27;20032;-74
2023/10/18 06:42:19;;;;;;;8.93;5.65;;;;;;;;;;5142924;27;20327;-75
2023/10/18 06:44:45;;;;;;;12.63;6.60;;;;;;;;;;5142776;27;20074;-74
2023/10/18 06:47:13;;;;;;;14.00;5.63;;;;;;;;;;5142622;27;20034;-76
2023/10/18 06:49:42;;;;;;;9.40;4.70;;;;;;;;;;5142616;27;20576;-75
2023/10/18 06:52:09;;;;;;;14.25;5.82;;;;;;;;;;5140665;27;20441;-75
2023/10/18 06:54:38;;;;;;;11.05;5.65;;;;;;;;;;5142275;27;20027;-74
2023/10/18 06:57:18;;;;;;;12.18;5.78;;;;;;;;;;5123397;27;20055;-73
2023/10/18 06:59:50;;;;;;;8.88;5.40;;;;;;;;;;5143484;27;20019;-73
2023/10/18 07:02:16;;;;;;;12.18;6.07;;;;;;;;;;5142198;27;20019;-73
2023/10/18 07:04:52;;;;;;;11.52;6.28;;;;;;;;;;5142084;27;20023;-74
2023/10/18 07:07:21;;;;;;;12.00;5.97;;;;;;;;;;5125378;27;20514;-74
2023/10/18 07:09:52;;;;;;;9.93;5.32;;;;;;;;;;5122652;28;20339;-74
2023/10/18 07:12:19;;;;;;;12.75;5.68;;;;;;;;;;5122726;28;20022;-74
2023/10/18 07:14:46;;;;;;;10.38;6.45;;;8.60;73.00;;;;;;5123088;28;20028;-74
2023/10/18 07:17:14;;;;;;;10.13;5.97;;;;;;;;;;5122805;28;20013;-74
2023/10/18 07:19:49;;;;;;;11.73;5.82;;;;;;;;;;5122651;28;20064;-74
2023/10/18 07:22:19;;;;;;;12.82;6.40;;;;;;;;;;5122545;28;20042;-73
2023/10/18 07:24:54;;;;;;;10.00;4.28;;;;;;;;;;5122367;28;20335;-74
2023/10/18 07:27:23;;;;;;;8.43;4.95;;;;;;;;;;5121020;28;20030;-74
2023/10/18 07:29:49;;;;;;;9.80;5.20;;;;;;;;;;5122076;28;20240;-73
2023/10/18 07:32:20;;;;;;;10.70;5.22;;;;;;;;;;5122238;28;20026;-73
2023/10/18 07:34:48;;;;;;;8.98;5.10;;;;;;;;;;5122258;28;20045;-73
2023/10/18 07:37:17;;;;;;;13.55;5.53;;;;;;;;;;5122069;28;20038;-75
2023/10/18 07:39:56;;;;;;;10.55;5.95;;;9.90;67.00;;;;;;5122044;28;20047;-76
2023/10/18 07:42:22;;;;;;;;;;;;;;;;;;5122613;28;20023;-74
2023/10/18 07:44:55;;;;;;;9.02;5.07;;;;;;;;;;5122013;28;20257;-76
2023/10/18 07:47:25;;;;;;;17.42;5.85;;;;;;;;;;5120608;28;20235;-76
2023/10/18 07:49:51;;;;;;;8.60;5.13;;;;;;;;;;5121898;28;20098;-74
2023/10/18 07:52:17;;;;;;;8.02;4.25;;;;;;;;;;5121862;28;20023;-73
2023/10/18 07:54:43;;;;;;;9.57;5.18;;;;;;;;;;5121805;28;20068;-74
2023/10/18 07:57:15;;;;;;;10.43;5.90;;;;;;;;;;5121674;28;20071;-74
2023/10/18 07:59:47;;;;;;;9.02;5.80;;;;;;;;;;5120451;28;20112;-74
2023/10/18 08:02:23;;;;;;;8.90;5.47;;;11.00;62.10;;;;;;5121584;28;20080;-74
2023/10/18 08:04:50;;;;;;;8.65;4.82;;;;;;;;;;5120335;28;20019;-74
2023/10/18 08:07:20;;;;;;;11.68;4.63;;;;;;;;;;5121520;28;20024;-76
2023/10/18 08:09:48;;;;;;;11.55;5.22;;;;;;;;;;5121517;28;20162;-75
2023/10/18 08:14:50;;;;;;;8.15;5.15;;;;;;;;;;5121757;28;20362;-74
2023/10/18 08:22:47;;;;;;;7.60;5.32;;;;;;;;;;5121207;28;20039;-75
2023/10/18 08:25:29;;;;;;;7.63;4.75;;;;;;;;;;5121453;28;20223;-74
2023/10/18 08:27:56;;;;;;;8.50;4.88;;;;;;;;;;5121154;28;20042;-75
2023/10/18 08:30:24;;;;;;;8.68;5.10;;;;;;;;;;5121049;28;20034;-76
2023/10/18 08:32:52;;;;;;;10.02;5.07;;;12.30;56.30;;;;;;5119817;28;20082;-75
2023/10/18 08:35:21;;;;;;;7.97;5.00;;;;;;;;;;5121130;28;20157;-75
2023/10/18 08:37:48;;;;;;;13.63;5.03;;;;;;;;;;5121159;28;20031;-75
2023/10/18 08:40:27;;;;;;;6.63;4.45;;;;;;;;;;5120964;28;20030;-75
2023/10/18 08:43:05;;;;;;;9.13;4.50;;;12.90;54.60;;;;;;5119754;28;20114;-75
2023/10/18 08:45:36;;;;;;;8.52;4.85;;;;;;;;;;5121010;28;20027;-75
2023/10/18 08:48:10;;;;;;;7.85;4.82;;;;;;;;;;5120804;28;20343;-74
2023/10/18 08:50:38;;;;;;;10.05;4.78;;;;;;;;;;5119617;28;20024;-74
2023/10/18 08:53:04;;;;;;;7.97;4.72;;;;;;;;;;5119541;28;20228;-74
2023/10/18 08:55:45;;;;;;;9.80;3.72;;;;;;;;;;5120797;28;20090;-74
2023/10/18 08:58:22;;;;;;;10.80;5.05;;;13.50;52.60;;;;;;5120844;28;20058;-74
2023/10/18 09:03:23;;;;;;;8.75;4.50;;;;;;;;;;5120792;28;20030;-74
2023/10/18 09:05:50;;;;;;;7.82;4.95;;;13.60;52.10;;;;;;5120564;28;20049;-75
2023/10/18 09:08:19;;;;;;;6.72;4.07;;;;;;;;;;5120551;28;20053;-74
2023/10/18 09:10:54;;;;;;;86.90;12.80;;;13.60;52.00;;;;;;5120496;28;20019;-74
2023/10/18 09:16:01;;;;;;;8.85;4.57;;;14.20;51.40;;;;;;5120525;28;20087;-74
2023/10/18 09:18:30;;;;;;;6.90;4.20;;;;;;;;;;5132080;28;20026;-74
2023/10/18 09:21:07;;;;;;;7.38;4.00;;;;;;;;;;5130737;28;20080;-74
2023/10/18 09:23:33;;;;;;;9.13;4.20;;;;;;;;;;5125717;27;20023;-74
2023/10/18 09:26:26;;;;;;;8.73;4.20;;;14.40;48.60;;;;;;5126999;27;20094;-73
2023/10/18 09:28:47;;;;;;;10.95;4.15;;;;;;;;;;5139965;28;20066;-74
2023/10/18 09:31:19;;;;;;;31.35;6.07;;;14.60;49.30;;;;;;5142620;27;20030;-74
2023/10/18 09:33:49;;;;;;;9.73;3.97;;;;;;;;;;5145115;27;20031;-75
2023/10/18 09:36:19;;;;;;;6.57;3.50;;;;;;;;;;5145054;27;20011;-74
2023/10/18 09:38:47;;;;;;;6.97;4.15;;;;;;;;;;5144998;27;20272;-73
2023/10/18 09:41:13;;;;;;;8.98;3.30;;;;;;;;;;5144906;27;20086;-74
2023/10/18 09:43:39;;;;;;;9.02;3.75;;;;;;;;;;5144070;27;20063;-74
2023/10/18 09:46:07;;;;;;;5.70;3.63;;;;;;;;;;5124274;28;20304;-73
2023/10/18 09:48:38;;;;;;;7.07;3.70;;;;;;;;;;5124284;28;20105;-74
2023/10/18 09:51:08;;;;;;;9.48;3.92;;;14.50;46.20;;;;;;5127889;27;20083;-73
2023/10/18 09:53:37;;;;;;;7.05;3.53;;;;;;;;;;5150646;27;20037;-74
2023/10/18 09:56:03;;;;;;;;;;;;;;;;;;5164909;27;20044;-74
2023/10/18 09:58:33;;;;;;;6.03;4.05;;;;;;;;;;5164330;27;20227;-74
2023/10/18 10:01:13;;;;;;;10.48;3.65;;;;;;;;;;5165515;27;20318;-73
2023/10/18 10:03:41;;;;;;;8.90;3.10;;;;;;;;;;5165439;27;20066;-74
2023/10/18 10:06:07;;;;;;;6.07;3.93;;;;;;;;;;5165589;27;20090;-74
2023/10/18 10:08:35;;;;;;;6.00;3.55;;;;;;;;;;5165422;27;20064;-74
2023/10/18 10:11:14;;;;;;;6.78;3.38;;;;;;;;;;5164254;27;20021;-73
2023/10/18 10:13:42;;;;;;;7.13;3.42;;;;;;;;;;5165571;27;20079;-74
2023/10/18 10:16:09;;;;;;;12.38;3.58;;;;;;;;;;5165615;27;20022;-74
2023/10/18 10:18:39;;;;;;;9.85;4.47;;;;;;;;;;5165172;27;20030;-74
2023/10/18 10:21:08;;;;;;;6.45;3.47;;;;;;;;;;5165090;27;20018;-74
2023/10/18 10:23:35;;;;;;;9.80;3.63;;;;;;;;;;5164917;27;20027;-74
2023/10/18 10:26:05;;;;;;;8.02;4.03;;;;;;;;;;5164886;27;20041;-74
2023/10/18 10:29:08;;;;;;;7.40;4.65;;;;;;;;;;5164651;27;20314;-74
2023/10/18 10:31:23;;;;;;;8.13;3.75;;;;;;;;;;5164500;27;20054;-74
2023/10/18 10:34:05;;;;;;;8.32;3.15;;;15.30;45.00;;;;;;5164680;27;20586;-74
2023/10/18 10:36:34;;;;;;;10.50;4.07;;;15.50;46.20;;;;;;5164595;27;20022;-74
2023/10/18 10:39:02;;;;;;;7.65;3.65;;;;;;;;;;5164499;27;20030;-73
2023/10/18 10:41:31;;;;;;;9.15;3.63;;;;;;;;;;5147643;27;20015;-74
2023/10/18 10:44:30;;;;;;;6.88;3.70;;;;;;;;;;5142961;27;20023;-74
2023/10/18 10:47:17;;;;;;;9.95;3.83;;;;;;;;;;5143747;27;20022;-75
2023/10/18 10:49:47;;;;;;;10.00;3.58;;;15.80;42.70;;;;;;5142785;27;20031;-74
2023/10/18 10:52:18;;;;;;;13.80;4.63;;;;;;;;;;5142336;27;20049;-74
2023/10/18 10:54:48;;;;;;;7.93;3.72;;;15.60;44.00;;;;;;5142906;27;20050;-74
2023/10/18 10:57:15;;;;;;;8.27;4.40;;;;;;;;;;5141873;27;20055;-74
2023/10/18 10:59:55;;;;;;;9.50;4.17;;;15.90;43.20;;;;;;5142122;27;20027;-74
2023/10/18 11:02:45;;;;;;;8.57;3.70;;;;;;;;;;5143685;27;20023;-73
2023/10/18 11:05:16;;;;;;;9.57;4.15;;;;;;;;;;5143360;27;20026;-74
2023/10/18 11:07:43;;;;;;;8.07;3.78;;;15.90;42.90;;;;;;5143129;27;20023;-74
2023/10/18 11:10:14;;;;;;;9.10;3.42;;;;;;;;;;5141882;27;20027;-72
2023/10/18 11:12:41;;;;;;;8.23;3.67;;;;;;;;;;5141437;27;20076;-73
2023/10/18 11:15:16;;;;;;;5.80;3.38;;;16.10;42.70;;;;;;5143023;27;20023;-73
2023/10/18 11:17:44;;;;;;;5.53;3.70;;;;;;;;;;5142908;27;20058;-74
2023/10/18 11:20:19;;;;;;;;;;;15.90;43.30;;;;;;5126230;27;20050;-73
2023/10/18 11:22:47;;;;;;;8.00;4.90;;;;;;;;;;5122419;28;19978;-73
2023/10/18 11:25:19;;;;;;;12.60;4.67;;;;;;;;;;5122258;28;20020;-73
2023/10/18 11:27:45;;;;;;;9.35;3.90;;;;;;;;;;5122085;28;20063;-73
2023/10/18 11:30:27;;;;;;;7.38;3.85;;;;;;;;;;5120881;28;20039;-73
2023/10/18 11:32:54;;;;;;;9.60;4.50;;;;;;;;;;5122239;28;20024;-73
2023/10/18 11:35:42;;;;;;;9.38;3.88;;;16.00;44.20;;;;;;5122231;28;20039;-73
2023/10/18 11:38:13;;;;;;;11.07;4.47;;;15.80;44.50;;;;;;5134817;27;20068;-73
2023/10/18 11:40:43;;;;;;;8.90;4.47;;;;;;;;;;5141362;27;20062;-73
2023/10/18 11:43:10;;;;;;;16.20;5.75;;;;;;;;;;5134081;27;20035;-72
2023/10/18 11:45:37;;;;;;;15.68;5.25;;;;;;;;;;5121806;28;20228;-73
2023/10/18 11:48:15;;;;;;;11.15;4.82;;;;;;;;;;5121626;28;20069;-73
2023/10/18 11:50:45;;;;;;;7.07;5.32;;;16.40;43.80;;;;;;5122351;28;20026;-73
2023/10/18 11:53:15;;;;;;;10.07;4.47;;;;;;;;;;5121653;28;20382;-73
2023/10/18 11:56:00;;;;;;;9.02;4.32;;;16.20;44.50;;;;;;5121881;27;20011;-73
2023/10/18 11:58:27;;;;;;;8.82;4.90;;;;;;;;;;5121556;28;20107;-73
2023/10/18 12:01:06;;;;;;;7.45;3.92;;;;;;;;;;5121526;28;20087;-73
2023/10/18 12:03:35;;;;;;;8.50;3.60;;;;;;;;;;5121623;28;20024;-74
2023/10/18 12:06:03;;;;;;;6.75;3.88;;;;;;;;;;5121495;28;20638;-74
2023/10/18 12:08:33;;;;;;;11.15;4.10;;;;;;;;;;5121279;28;20031;-75
2023/10/18 12:11:09;;;;;;;10.85;3.72;;;;;;;;;;5121530;28;20011;-74
2023/10/18 12:13:37;;;;;;;5.78;3.70;;;;;;;;;;5135746;27;20037;-75
2023/10/18 12:16:03;;;;;;;7.45;4.07;;;;;;;;;;5138575;27;20026;-74
2023/10/18 12:18:29;;;;;;;10.55;3.75;;;;;;;;;;5153249;27;20353;-75
2023/10/18 12:20:55;;;;;;;7.68;4.00;;;16.60;43.90;;;;;;5160838;27;20042;-75
2023/10/18 12:23:22;;;;;;;7.45;4.00;;;;;;;;;;5161255;27;20026;-75
2023/10/18 12:25:48;;;;;;;7.13;3.42;;;;;;;;;;5163486;27;20037;-75
2023/10/18 12:31:09;;;;;;;7.37;4.77;;;;;;;;;;5161451;27;20029;-74
2023/10/18 12:33:36;;;;;;;10.25;4.28;;;;;;;;;;5160851;27;20247;-74
2023/10/18 12:36:07;;;;;;;11.18;4.25;;;;;;;;;;5159575;27;20322;-74
2023/10/18 12:38:38;;;;;;;13.63;5.72;;;;;;;;;;5159854;27;20118;-74
2023/10/18 12:41:31;;;;;;;11.00;4.72;;;;;;;;;;5160637;27;20191;-74
2023/10/18 12:43:53;;;;;;;7.78;4.78;;;;;;;;;;5161436;27;20031;-75
2023/10/18 12:46:22;;;;;;;7.93;4.32;;;;;;;;;;5161570;27;20022;-73
2023/10/18 12:48:51;;;;;;;6.38;4.13;;;;;;;;;;5162246;27;20322;-75
2023/10/18 12:51:30;;;;;;;7.10;4.15;;;;;;;;;;5162290;27;20642;-75
2023/10/18 12:53:57;;;;;;;7.70;3.72;;;;;;;;;;5162509;27;20061;-75
2023/10/18 12:58:58;;;;;;;11.13;5.00;;;17.10;42.90;;;;;;5162378;27;20038;-75
2023/10/18 13:01:31;;;;;;;9.90;3.78;;;;;;;;;;5162148;27;20090;-75
2023/10/18 13:03:57;;;;;;;11.70;4.53;;;;;;;;;;5162064;27;20223;-75
2023/10/18 13:06:30;;;;;;;11.15;4.78;;;;;;;;;;5161510;27;20025;-75
2023/10/18 13:09:15;;;;;;;7.35;4.50;;;;;;;;;;5160766;27;20038;-75
2023/10/18 13:14:15;;;;;;;12.32;4.60;;;16.70;44.70;;;;;;5162300;27;20022;-75
2023/10/18 13:16:44;;;;;;;8.60;4.45;;;;;;;;;;5162042;27;20015;-75
2023/10/18 13:19:18;;;;;;;11.75;5.40;;;16.50;45.10;;;;;;5162072;27;20034;-75
2023/10/18 13:21:45;;;;;;;8.30;4.80;;;;;;;;;;5162214;27;20014;-75
2023/10/18 13:24:17;;;;;;;8.85;4.90;;;;;;;;;;5161910;27;20030;-74
2023/10/18 13:26:47;;;;;;;80.43;10.70;;;16.90;46.30;;;;;;5160605;27;20015;-75
2023/10/18 13:29:29;;;;;;;10.32;4.95;;;;;;;;;;5161834;27;20090;-75
2023/10/18 13:31:58;;;;;;;8.18;4.80;;;;;;;;;;5161866;27;20302;-75
2023/10/18 13:34:27;;;;;;;9.32;4.40;;;;;;;;;;5161948;27;20390;-75
2023/10/18 13:36:54;;;;;;;7.65;4.78;;;15.80;46.60;;;;;;5161784;27;20030;-74
2023/10/18 13:39:24;;;;;;;10.55;4.90;;;;;;;;;;5161651;27;20338;-74
2023/10/18 13:41:50;;;;;;;10.80;4.75;;;;;;;;;;5161754;27;20491;-75
2023/10/18 13:44:21;;;;;;;11.27;6.30;;;;;;;;;;5161755;27;20081;-74
2023/10/18 13:46:50;;;;;;;9.80;4.78;;;;;;;;;;5161748;27;20037;-75
2023/10/18 13:49:19;;;;;;;;;;;15.40;47.00;;;;;;5162128;27;20046;-75
2023/10/18 13:51:48;;;;;;;9.68;4.47;;;;;;;;;;5161235;27;19907;-74
2023/10/18 13:54:14;;;;;;;16.45;7.00;;;;;;;;;;5160119;27;20136;-74
2023/10/18 13:56:41;;;;;;;8.43;5.38;;;;;;;;;;5161464;27;20027;-74
2023/10/18 13:59:07;;;;;;;10.10;4.60;;;;;;;;;;5161433;27;20226;-74
2023/10/18 14:01:34;;;;;;;10.15;4.55;;;;;;;;;;5161233;27;20075;-75
2023/10/18 14:04:01;;;;;;;11.68;4.55;;;;;;;;;;5161233;27;20022;-74
2023/10/18 14:06:30;;;;;;;8.52;4.25;;;15.00;48.60;;;;;;5161555;27;20034;-75
2023/10/18 14:08:56;;;;;;;8.35;5.63;;;;;;;;;;5161033;27;20071;-74
2023/10/18 14:11:23;;;;;;;19.40;5.57;;;;;;;;;;5161059;27;20033;-74
2023/10/18 14:13:50;;;;;;;5.97;4.53;;;;;;;;;;5159933;27;20256;-75
2023/10/18 14:16:16;;;;;;;6.43;4.22;;;;;;;;;;5161242;27;20034;-74
2023/10/18 14:18:47;;;;;;;11.25;5.10;;;;;;;;;;5163533;27;20014;-74
2023/10/18 14:21:13;;;;;;;11.93;5.25;;;;;;;;;;5164986;27;20023;-74
2023/10/18 14:23:40;;;;;;;8.77;4.68;;;;;;;;;;5164828;27;20023;-74
2023/10/18 14:26:06;;;;;;;11.80;4.40;;;;;;;;;;5164777;27;20014;-74
2023/10/18 14:28:33;;;;;;;10.02;4.00;;;;;;;;;;5164841;27;20287;-74
2023/10/18 14:30:59;;;;;;;6.65;3.53;;;;;;;;;;5164799;27;20089;-75
2023/10/18 14:33:28;;;;;;;5.95;4.10;;;;;;;;;;5165025;27;20064;-75
2023/10/18 14:35:54;;;;;;;5.35;2.75;;;;;;;;;;5164700;27;20029;-74
2023/10/18 14:38:20;;;;;;;6.78;4.05;;;;;;;;;;5164576;27;20341;-74
2023/10/18 14:40:46;;;;;;;6.88;3.85;;;;;;;;;;5164547;27;20139;-74
2023/10/18 14:43:13;;;;;;;7.70;2.67;;;;;;;;;;5164457;27;20315;-74
2023/10/18 14:45:42;;;;;;;6.47;4.50;;;;;;;;;;5155852;27;20097;-74
2023/10/18 14:48:08;;;;;;;7.10;3.17;;;;;;;;;;5132311;27;20042;-74
2023/10/18 14:50:35;;;;;;;8.20;4.28;;;;;;;;;;5124579;27;20319;-74
2023/10/18 14:53:01;;;;;;;6.25;3.28;;;;;;;;;;5143504;27;20368;-73
2023/10/18 14:55:30;;;;;;;4.93;2.95;;;;;;;;;;5143213;27;20335;-74
2023/10/18 14:57:56;;;;;;;7.15;3.47;;;;;;;;;;5143227;27;20394;-74
2023/10/18 15:00:22;;;;;;;8.02;3.53;;;;;;;;;;5142079;27;20308;-72
2023/10/18 15:02:50;;;;;;;7.68;3.67;;;;;;;;;;5143882;27;20019;-73
2023/10/18 15:05:17;;;;;;;7.53;4.15;;;;;;;;;;5141907;27;20097;-73
2023/10/18 15:07:46;;;;;;;10.25;2.97;;;;;;;;;;5143267;27;20251;-75
2023/10/18 15:10:13;;;;;;;12.80;3.78;;;;;;;;;;5143027;27;20349;-73
2023/10/18 15:12:38;;;;;;;7.93;3.30;;;;;;;;;;5141041;27;20027;-77
2023/10/18 15:15:09;;;;;;;7.32;4.05;;;;;;;;;;5143130;27;20245;-73
2023/10/18 15:17:37;;;;;;;9.75;3.40;;;;;;;;;;5136952;27;20038;-73